sensor_id;sensor_type;location;lat;lon;timestamp;temperature;humidity
19206;DHT22;59358;52.134;5.596;2022-11-20T00:00:49;-3.30;99.90
19206;DHT22;59358;52.134;5.596;2022-11-20T00:03:16;-3.30;99.90
19206;DHT22;59358;52.134;5.596;2022-11-20T00:05:43;-3.20;99.90
19206;DHT22;59358;52.134;5.596;2022-11-20T00:08:10;-3.10;99.90
19206;DHT22;59358;52.134;5.596;2022-11-20T00:10:37;-3.10;99.90
19206;DHT22;59358;52.134;5.596;2022-11-20T00:13:06;-3.00;99.90
19206;DHT22;59358;52.134;5.596;2022-11-20T00:15:34;-3.00;99.90
19206;DHT22;59358;52.134;5.596;2022-11-20T00:18:00;-3.10;99.90
19206;DHT22;59358;52.134;5.596;2022-11-20T00:20:27;-3.10;99.90
19206;DHT22;59358;52.134;5.596;2022-11-20T00:22:54;-3.20;99.90
19206;DHT22;59358;52.134;5.596;2022-11-20T00:25:21;-3.30;99.90
19206;DHT22;59358;52.134;5.596;2022-11-20T00:27:48;-3.30;99.90
19206;DHT22;59358;52.134;5.596;2022-11-20T00:30:16;-3.40;99.90
19206;DHT22;59358;52.134;5.596;2022-11-20T00:32:43;-3.50;99.90
19206;DHT22;59358;52.134;5.596;2022-11-20T00:35:09;-3.50;99.90
19206;DHT22;59358;52.134;5.596;2022-11-20T00:37:36;-3.40;99.90
19206;DHT22;59358;52.134;5.596;2022-11-20T00:40:04;-3.40;99.90
19206;DHT22;59358;52.134;5.596;2022-11-20T00:42:31;-3.40;99.90
19206;DHT22;59358;52.134;5.596;2022-11-20T00:44:59;-3.40;99.90
19206;DHT22;59358;52.134;5.596;2022-11-20T00:47:27;-3.40;99.90
19206;DHT22;59358;52.134;5.596;2022-11-20T00:49:54;-3.40;99.90
19206;DHT22;59358;52.134;5.596;2022-11-20T00:52:21;-3.40;99.90
19206;DHT22;59358;52.134;5.596;2022-11-20T00:54:47;-3.40;99.90
19206;DHT22;59358;52.134;5.596;2022-11-20T00:57:14;-3.50;99.90
19206;DHT22;59358;52.134;5.596;2022-11-20T00:59:41;-3.50;99.90
19206;DHT22;59358;52.134;5.596;2022-11-20T01:02:08;-3.60;99.90
19206;DHT22;59358;52.134;5.596;2022-11-20T01:04:36;-3.70;99.90
19206;DHT22;59358;52.134;5.596;2022-11-20T01:07:02;-3.60;99.90
19206;DHT22;59358;52.134;5.596;2022-11-20T01:09:29;-3.60;99.90
19206;DHT22;59358;52.134;5.596;2022-11-20T01:11:56;-3.60;99.90
19206;DHT22;59358;52.134;5.596;2022-11-20T01:14:24;-3.60;99.90
19206;DHT22;59358;52.134;5.596;2022-11-20T01:16:52;-3.50;99.90
19206;DHT22;59358;52.134;5.596;2022-11-20T01:19:21;-3.50;99.90
19206;DHT22;59358;52.134;5.596;2022-11-20T01:21:51;-3.50;99.90
19206;DHT22;59358;52.134;5.596;2022-11-20T01:24:20;-3.50;99.90
19206;DHT22;59358;52.134;5.596;2022-11-20T01:26:49;-3.40;99.90
19206;DHT22;59358;52.134;5.596;2022-11-20T01:29:18;-3.40;99.90
19206;DHT22;59358;52.134;5.596;2022-11-20T01:31:45;-3.50;99.90
19206;DHT22;59358;52.134;5.596;2022-11-20T01:34:14;-3.50;99.90
19206;DHT22;59358;52.134;5.596;2022-11-20T01:36:42;-3.50;99.90
19206;DHT22;59358;52.134;5.596;2022-11-20T01:39:12;-3.50;99.90
19206;DHT22;59358;52.134;5.596;2022-11-20T01:41:40;-3.60;99.90
19206;DHT22;59358;52.134;5.596;2022-11-20T01:44:50;-3.60;99.90
19206;DHT22;59358;52.134;5.596;2022-11-20T01:47:24;-3.70;99.90
19206;DHT22;59358;52.134;5.596;2022-11-20T01:49:55;-3.70;99.90
19206;DHT22;59358;52.134;5.596;2022-11-20T01:52:25;-3.80;99.90
19206;DHT22;59358;52.134;5.596;2022-11-20T01:54:57;-3.80;99.90
19206;DHT22;59358;52.134;5.596;2022-11-20T01:57:27;-3.80;99.90
19206;DHT22;59358;52.134;5.596;2022-11-20T01:59:59;-3.90;99.90
19206;DHT22;59358;52.134;5.596;2022-11-20T02:02:27;-4.00;99.90
19206;DHT22;59358;52.134;5.596;2022-11-20T02:04:56;-4.00;99.90
19206;DHT22;59358;52.134;5.596;2022-11-20T02:07:25;-4.00;99.90
19206;DHT22;59358;52.134;5.596;2022-11-20T02:09:52;-4.10;99.90
19206;DHT22;59358;52.134;5.596;2022-11-20T02:12:21;-4.10;99.90
19206;DHT22;59358;52.134;5.596;2022-11-20T02:15:05;-4.20;99.90
19206;DHT22;59358;52.134;5.596;2022-11-20T02:17:32;-4.20;99.90
19206;DHT22;59358;52.134;5.596;2022-11-20T02:19:59;-4.20;99.90
19206;DHT22;59358;52.134;5.596;2022-11-20T02:22:30;-4.20;99.90
19206;DHT22;59358;52.134;5.596;2022-11-20T02:25:02;-4.20;99.90
19206;DHT22;59358;52.134;5.596;2022-11-20T02:27:30;-4.30;99.90
19206;DHT22;59358;52.134;5.596;2022-11-20T02:29:59;-4.20;99.90
19206;DHT22;59358;52.134;5.596;2022-11-20T02:32:28;-4.20;99.90
19206;DHT22;59358;52.134;5.596;2022-11-20T02:34:56;-4.20;99.90
19206;DHT22;59358;52.134;5.596;2022-11-20T02:37:23;-4.30;99.90
19206;DHT22;59358;52.134;5.596;2022-11-20T02:39:55;-4.30;99.90
19206;DHT22;59358;52.134;5.596;2022-11-20T02:42:24;-4.30;99.90
19206;DHT22;59358;52.134;5.596;2022-11-20T02:44:51;-4.30;99.90
19206;DHT22;59358;52.134;5.596;2022-11-20T02:47:17;-4.30;99.90
19206;DHT22;59358;52.134;5.596;2022-11-20T02:49:44;-4.30;99.90
19206;DHT22;59358;52.134;5.596;2022-11-20T02:52:11;-4.30;99.90
19206;DHT22;59358;52.134;5.596;2022-11-20T02:54:38;-4.40;99.90
19206;DHT22;59358;52.134;5.596;2022-11-20T02:57:04;-4.40;99.90
19206;DHT22;59358;52.134;5.596;2022-11-20T02:59:34;-4.40;99.90
19206;DHT22;59358;52.134;5.596;2022-11-20T03:02:00;-4.40;99.90
19206;DHT22;59358;52.134;5.596;2022-11-20T03:04:27;-4.30;99.90
19206;DHT22;59358;52.134;5.596;2022-11-20T03:06:54;-4.20;99.90
19206;DHT22;59358;52.134;5.596;2022-11-20T03:09:21;-4.20;99.90
19206;DHT22;59358;52.134;5.596;2022-11-20T03:11:48;-4.20;99.90
19206;DHT22;59358;52.134;5.596;2022-11-20T03:14:15;-4.30;99.90
19206;DHT22;59358;52.134;5.596;2022-11-20T03:16:43;-4.40;99.90
19206;DHT22;59358;52.134;5.596;2022-11-20T03:19:11;-4.40;99.90
19206;DHT22;59358;52.134;5.596;2022-11-20T03:21:38;-4.40;99.90
19206;DHT22;59358;52.134;5.596;2022-11-20T03:24:05;-4.50;99.90
19206;DHT22;59358;52.134;5.596;2022-11-20T03:26:32;-4.50;99.90
19206;DHT22;59358;52.134;5.596;2022-11-20T03:29:01;-4.60;99.90
19206;DHT22;59358;52.134;5.596;2022-11-20T03:31:30;-4.60;99.90
19206;DHT22;59358;52.134;5.596;2022-11-20T03:33:59;-4.60;99.90
19206;DHT22;59358;52.134;5.596;2022-11-20T03:36:27;-4.50;99.90
19206;DHT22;59358;52.134;5.596;2022-11-20T03:38:54;-4.50;99.90
19206;DHT22;59358;52.134;5.596;2022-11-20T03:41:23;-4.50;99.90
19206;DHT22;59358;52.134;5.596;2022-11-20T03:43:51;-4.60;99.90
19206;DHT22;59358;52.134;5.596;2022-11-20T03:46:18;-4.50;99.90
19206;DHT22;59358;52.134;5.596;2022-11-20T03:48:44;-4.60;99.90
19206;DHT22;59358;52.134;5.596;2022-11-20T03:51:14;-4.60;99.90
19206;DHT22;59358;52.134;5.596;2022-11-20T03:53:42;-4.70;99.90
19206;DHT22;59358;52.134;5.596;2022-11-20T03:56:10;-4.70;99.90
19206;DHT22;59358;52.134;5.596;2022-11-20T03:58:39;-4.70;99.90
19206;DHT22;59358;52.134;5.596;2022-11-20T04:01:07;-4.70;99.90
19206;DHT22;59358;52.134;5.596;2022-11-20T04:03:34;-4.70;99.90
19206;DHT22;59358;52.134;5.596;2022-11-20T04:06:03;-4.70;99.90
19206;DHT22;59358;52.134;5.596;2022-11-20T04:08:31;-4.70;99.90
19206;DHT22;59358;52.134;5.596;2022-11-20T04:11:11;-4.70;99.90
19206;DHT22;59358;52.134;5.596;2022-11-20T04:13:39;-4.70;99.90
19206;DHT22;59358;52.134;5.596;2022-11-20T04:16:07;-4.80;99.90
19206;DHT22;59358;52.134;5.596;2022-11-20T04:18:34;-4.80;99.90
19206;DHT22;59358;52.134;5.596;2022-11-20T04:21:01;-4.80;99.90
19206;DHT22;59358;52.134;5.596;2022-11-20T04:23:28;-4.80;99.90
19206;DHT22;59358;52.134;5.596;2022-11-20T04:26:00;-4.80;99.90
19206;DHT22;59358;52.134;5.596;2022-11-20T04:28:27;-4.90;99.90
19206;DHT22;59358;52.134;5.596;2022-11-20T04:30:54;-4.80;99.90
19206;DHT22;59358;52.134;5.596;2022-11-20T04:33:27;-4.90;99.90
19206;DHT22;59358;52.134;5.596;2022-11-20T04:35:54;-4.90;99.90
19206;DHT22;59358;52.134;5.596;2022-11-20T04:38:21;-4.90;99.90
19206;DHT22;59358;52.134;5.596;2022-11-20T04:40:47;-4.80;99.90
19206;DHT22;59358;52.134;5.596;2022-11-20T04:43:15;-4.70;99.90
19206;DHT22;59358;52.134;5.596;2022-11-20T04:45:42;-4.70;99.90
19206;DHT22;59358;52.134;5.596;2022-11-20T04:48:09;-4.80;99.90
19206;DHT22;59358;52.134;5.596;2022-11-20T04:50:39;-4.80;99.90
19206;DHT22;59358;52.134;5.596;2022-11-20T04:53:06;-4.90;99.90
19206;DHT22;59358;52.134;5.596;2022-11-20T04:55:33;-4.90;99.90
19206;DHT22;59358;52.134;5.596;2022-11-20T04:58:00;-4.90;99.90
19206;DHT22;59358;52.134;5.596;2022-11-20T05:00:28;-4.90;99.90
19206;DHT22;59358;52.134;5.596;2022-11-20T05:02:55;-4.90;99.90
19206;DHT22;59358;52.134;5.596;2022-11-20T05:05:22;-4.90;99.90
19206;DHT22;59358;52.134;5.596;2022-11-20T05:07:48;-4.90;99.90
19206;DHT22;59358;52.134;5.596;2022-11-20T05:10:15;-4.90;99.90
19206;DHT22;59358;52.134;5.596;2022-11-20T05:12:42;-5.00;99.90
19206;DHT22;59358;52.134;5.596;2022-11-20T05:15:09;-4.90;99.90
19206;DHT22;59358;52.134;5.596;2022-11-20T05:17:38;-4.80;99.90
19206;DHT22;59358;52.134;5.596;2022-11-20T05:20:05;-4.90;99.90
19206;DHT22;59358;52.134;5.596;2022-11-20T05:22:32;-4.90;99.90
19206;DHT22;59358;52.134;5.596;2022-11-20T05:24:59;-5.00;99.90
19206;DHT22;59358;52.134;5.596;2022-11-20T05:27:25;-5.10;99.90
19206;DHT22;59358;52.134;5.596;2022-11-20T05:29:52;-5.20;99.90
19206;DHT22;59358;52.134;5.596;2022-11-20T05:32:19;-5.20;99.90
19206;DHT22;59358;52.134;5.596;2022-11-20T05:34:47;-5.20;99.90
19206;DHT22;59358;52.134;5.596;2022-11-20T05:37:14;-5.20;99.90
19206;DHT22;59358;52.134;5.596;2022-11-20T05:39:41;-5.30;99.90
19206;DHT22;59358;52.134;5.596;2022-11-20T05:42:07;-5.30;99.90
19206;DHT22;59358;52.134;5.596;2022-11-20T05:44:52;-5.30;99.90
19206;DHT22;59358;52.134;5.596;2022-11-20T05:47:19;-5.20;99.90
19206;DHT22;59358;52.134;5.596;2022-11-20T05:49:47;-5.10;99.90
19206;DHT22;59358;52.134;5.596;2022-11-20T05:52:14;-5.10;99.90
19206;DHT22;59358;52.134;5.596;2022-11-20T05:54:41;-5.00;99.90
19206;DHT22;59358;52.134;5.596;2022-11-20T05:57:08;-5.00;99.90
19206;DHT22;59358;52.134;5.596;2022-11-20T05:59:35;-5.00;99.90
19206;DHT22;59358;52.134;5.596;2022-11-20T06:02:01;-5.00;99.90
19206;DHT22;59358;52.134;5.596;2022-11-20T06:04:28;-5.10;99.90
19206;DHT22;59358;52.134;5.596;2022-11-20T06:06:57;-5.10;99.90
19206;DHT22;59358;52.134;5.596;2022-11-20T06:09:23;-5.20;99.90
19206;DHT22;59358;52.134;5.596;2022-11-20T06:11:50;-5.30;99.90
19206;DHT22;59358;52.134;5.596;2022-11-20T06:14:17;-5.30;99.90
19206;DHT22;59358;52.134;5.596;2022-11-20T06:16:44;-5.30;99.90
19206;DHT22;59358;52.134;5.596;2022-11-20T06:19:11;-5.30;99.90
19206;DHT22;59358;52.134;5.596;2022-11-20T06:21:38;-5.30;99.90
19206;DHT22;59358;52.134;5.596;2022-11-20T06:24:08;-5.30;99.90
19206;DHT22;59358;52.134;5.596;2022-11-20T06:26:35;-5.30;99.90
19206;DHT22;59358;52.134;5.596;2022-11-20T06:29:02;-5.40;99.90
19206;DHT22;59358;52.134;5.596;2022-11-20T06:31:29;-5.40;99.90
19206;DHT22;59358;52.134;5.596;2022-11-20T06:33:58;-5.30;99.90
19206;DHT22;59358;52.134;5.596;2022-11-20T06:36:25;-5.30;99.90
19206;DHT22;59358;52.134;5.596;2022-11-20T06:38:51;-5.20;99.90
19206;DHT22;59358;52.134;5.596;2022-11-20T06:41:21;-5.30;99.90
19206;DHT22;59358;52.134;5.596;2022-11-20T06:43:48;-5.10;99.90
19206;DHT22;59358;52.134;5.596;2022-11-20T06:46:17;-5.10;99.90
19206;DHT22;59358;52.134;5.596;2022-11-20T06:48:44;-5.10;99.90
19206;DHT22;59358;52.134;5.596;2022-11-20T06:51:11;-5.10;99.90
19206;DHT22;59358;52.134;5.596;2022-11-20T06:53:38;-5.10;99.90
19206;DHT22;59358;52.134;5.596;2022-11-20T06:56:06;-5.20;99.90
19206;DHT22;59358;52.134;5.596;2022-11-20T06:58:35;-5.10;99.90
19206;DHT22;59358;52.134;5.596;2022-11-20T07:01:04;-5.10;99.90
19206;DHT22;59358;52.134;5.596;2022-11-20T07:03:31;-5.10;99.90
19206;DHT22;59358;52.134;5.596;2022-11-20T07:05:58;-5.00;99.90
19206;DHT22;59358;52.134;5.596;2022-11-20T07:08:26;-5.00;99.90
19206;DHT22;59358;52.134;5.596;2022-11-20T07:10:57;-5.00;99.90
19206;DHT22;59358;52.134;5.596;2022-11-20T07:13:25;-4.90;99.90
19206;DHT22;59358;52.134;5.596;2022-11-20T07:15:53;-5.00;99.90
19206;DHT22;59358;52.134;5.596;2022-11-20T07:18:20;-4.90;99.90
19206;DHT22;59358;52.134;5.596;2022-11-20T07:20:47;-4.90;99.90
19206;DHT22;59358;52.134;5.596;2022-11-20T07:23:14;-5.00;99.90
19206;DHT22;59358;52.134;5.596;2022-11-20T07:25:41;-5.00;99.90
19206;DHT22;59358;52.134;5.596;2022-11-20T07:28:08;-5.00;99.90
19206;DHT22;59358;52.134;5.596;2022-11-20T07:30:36;-5.00;99.90
19206;DHT22;59358;52.134;5.596;2022-11-20T07:33:04;-5.00;99.90
19206;DHT22;59358;52.134;5.596;2022-11-20T07:35:31;-4.90;99.90
19206;DHT22;59358;52.134;5.596;2022-11-20T07:37:58;-4.80;99.90
19206;DHT22;59358;52.134;5.596;2022-11-20T07:40:25;-4.70;99.90
19206;DHT22;59358;52.134;5.596;2022-11-20T07:42:54;-4.60;99.90
19206;DHT22;59358;52.134;5.596;2022-11-20T07:45:23;-4.60;99.90
19206;DHT22;59358;52.134;5.596;2022-11-20T07:47:50;-4.50;99.90
19206;DHT22;59358;52.134;5.596;2022-11-20T07:50:18;-4.40;99.90
19206;DHT22;59358;52.134;5.596;2022-11-20T07:52:46;-4.30;99.90
19206;DHT22;59358;52.134;5.596;2022-11-20T07:55:13;-4.20;99.90
19206;DHT22;59358;52.134;5.596;2022-11-20T07:57:40;-4.10;99.90
19206;DHT22;59358;52.134;5.596;2022-11-20T08:00:09;-4.00;99.90
19206;DHT22;59358;52.134;5.596;2022-11-20T08:02:37;-3.90;99.90
19206;DHT22;59358;52.134;5.596;2022-11-20T08:05:06;-3.70;99.90
19206;DHT22;59358;52.134;5.596;2022-11-20T08:07:37;-3.60;99.90
19206;DHT22;59358;52.134;5.596;2022-11-20T08:10:05;-3.40;99.90
19206;DHT22;59358;52.134;5.596;2022-11-20T08:12:32;-3.30;99.90
19206;DHT22;59358;52.134;5.596;2022-11-20T08:15:16;-3.20;99.90
19206;DHT22;59358;52.134;5.596;2022-11-20T08:17:43;-3.20;99.90
19206;DHT22;59358;52.134;5.596;2022-11-20T08:20:10;-3.00;99.90
19206;DHT22;59358;52.134;5.596;2022-11-20T08:22:41;-2.90;99.90
19206;DHT22;59358;52.134;5.596;2022-11-20T08:25:08;-2.80;99.90
19206;DHT22;59358;52.134;5.596;2022-11-20T08:27:34;-2.70;99.90
19206;DHT22;59358;52.134;5.596;2022-11-20T08:30:01;-2.60;99.90
19206;DHT22;59358;52.134;5.596;2022-11-20T08:32:29;-2.50;99.90
19206;DHT22;59358;52.134;5.596;2022-11-20T08:34:56;-2.50;99.90
19206;DHT22;59358;52.134;5.596;2022-11-20T08:37:23;-2.30;99.90
19206;DHT22;59358;52.134;5.596;2022-11-20T08:39:51;-2.00;99.90
19206;DHT22;59358;52.134;5.596;2022-11-20T08:42:19;-2.00;99.90
19206;DHT22;59358;52.134;5.596;2022-11-20T08:44:46;-1.90;99.90
19206;DHT22;59358;52.134;5.596;2022-11-20T08:47:13;-1.80;99.90
19206;DHT22;59358;52.134;5.596;2022-11-20T08:49:39;-1.70;99.90
19206;DHT22;59358;52.134;5.596;2022-11-20T08:52:06;-1.60;99.90
19206;DHT22;59358;52.134;5.596;2022-11-20T08:54:33;-1.50;99.90
19206;DHT22;59358;52.134;5.596;2022-11-20T08:57:01;-1.30;99.90
19206;DHT22;59358;52.134;5.596;2022-11-20T08:59:28;-1.30;99.90
19206;DHT22;59358;52.134;5.596;2022-11-20T09:01:56;-1.30;99.90
19206;DHT22;59358;52.134;5.596;2022-11-20T09:04:23;-1.20;99.90
19206;DHT22;59358;52.134;5.596;2022-11-20T09:06:50;-1.00;99.90
19206;DHT22;59358;52.134;5.596;2022-11-20T09:09:17;-0.90;99.90
19206;DHT22;59358;52.134;5.596;2022-11-20T09:11:44;-0.80;99.90
19206;DHT22;59358;52.134;5.596;2022-11-20T09:14:12;-0.60;99.90
19206;DHT22;59358;52.134;5.596;2022-11-20T09:16:39;-0.60;99.90
19206;DHT22;59358;52.134;5.596;2022-11-20T09:19:06;-0.60;99.90
19206;DHT22;59358;52.134;5.596;2022-11-20T09:21:33;-0.40;99.90
19206;DHT22;59358;52.134;5.596;2022-11-20T09:24:00;-0.20;99.90
19206;DHT22;59358;52.134;5.596;2022-11-20T09:26:27;-0.20;99.90
19206;DHT22;59358;52.134;5.596;2022-11-20T09:28:54;-0.30;99.90
19206;DHT22;59358;52.134;5.596;2022-11-20T09:31:24;-0.30;99.90
19206;DHT22;59358;52.134;5.596;2022-11-20T09:33:51;-0.30;99.90
19206;DHT22;59358;52.134;5.596;2022-11-20T09:36:18;-0.30;99.90
19206;DHT22;59358;52.134;5.596;2022-11-20T09:38:45;-0.10;99.90
19206;DHT22;59358;52.134;5.596;2022-11-20T09:41:42;0.00;99.90
19206;DHT22;59358;52.134;5.596;2022-11-20T09:44:24;0.10;99.90
19206;DHT22;59358;52.134;5.596;2022-11-20T09:46:59;0.30;99.90
19206;DHT22;59358;52.134;5.596;2022-11-20T09:49:32;0.40;99.90
19206;DHT22;59358;52.134;5.596;2022-11-20T09:52:12;0.70;99.90
19206;DHT22;59358;52.134;5.596;2022-11-20T09:54:43;0.80;99.90
19206;DHT22;59358;52.134;5.596;2022-11-20T09:57:12;1.00;99.90
19206;DHT22;59358;52.134;5.596;2022-11-20T09:59:42;1.10;99.90
19206;DHT22;59358;52.134;5.596;2022-11-20T10:02:24;1.30;99.90
19206;DHT22;59358;52.134;5.596;2022-11-20T10:04:57;1.40;99.90
19206;DHT22;59358;52.134;5.596;2022-11-20T10:07:30;1.40;99.90
19206;DHT22;59358;52.134;5.596;2022-11-20T10:09:59;1.50;99.90
19206;DHT22;59358;52.134;5.596;2022-11-20T10:12:34;1.40;99.90
19206;DHT22;59358;52.134;5.596;2022-11-20T10:15:14;1.60;99.90
19206;DHT22;59358;52.134;5.596;2022-11-20T10:18:03;1.60;99.90
19206;DHT22;59358;52.134;5.596;2022-11-20T10:20:40;1.80;99.90
19206;DHT22;59358;52.134;5.596;2022-11-20T10:23:34;1.90;99.90
19206;DHT22;59358;52.134;5.596;2022-11-20T10:26:17;2.10;99.90
19206;DHT22;59358;52.134;5.596;2022-11-20T10:28:56;2.10;99.90
19206;DHT22;59358;52.134;5.596;2022-11-20T10:31:31;2.20;99.90
19206;DHT22;59358;52.134;5.596;2022-11-20T10:34:05;2.30;99.90
19206;DHT22;59358;52.134;5.596;2022-11-20T10:36:35;2.40;99.90
19206;DHT22;59358;52.134;5.596;2022-11-20T10:39:18;2.40;99.90
19206;DHT22;59358;52.134;5.596;2022-11-20T10:41:51;2.50;99.90
19206;DHT22;59358;52.134;5.596;2022-11-20T10:44:21;2.60;99.90
19206;DHT22;59358;52.134;5.596;2022-11-20T10:47:04;2.70;99.90
19206;DHT22;59358;52.134;5.596;2022-11-20T10:49:33;2.80;99.90
19206;DHT22;59358;52.134;5.596;2022-11-20T10:52:07;2.80;99.90
19206;DHT22;59358;52.134;5.596;2022-11-20T10:54:42;2.90;99.90
19206;DHT22;59358;52.134;5.596;2022-11-20T10:57:20;2.90;99.90
19206;DHT22;59358;52.134;5.596;2022-11-20T11:00:06;3.00;99.90
19206;DHT22;59358;52.134;5.596;2022-11-20T11:02:37;3.00;99.90
19206;DHT22;59358;52.134;5.596;2022-11-20T11:05:16;3.00;99.90
19206;DHT22;59358;52.134;5.596;2022-11-20T11:07:44;3.00;99.90
19206;DHT22;59358;52.134;5.596;2022-11-20T11:10:15;3.00;99.90
19206;DHT22;59358;52.134;5.596;2022-11-20T11:12:44;2.90;99.90
19206;DHT22;59358;52.134;5.596;2022-11-20T11:15:15;3.00;99.90
19206;DHT22;59358;52.134;5.596;2022-11-20T11:17:50;3.10;99.90
19206;DHT22;59358;52.134;5.596;2022-11-20T11:20:20;3.20;99.90
19206;DHT22;59358;52.134;5.596;2022-11-20T11:22:49;3.30;99.90
19206;DHT22;59358;52.134;5.596;2022-11-20T11:25:23;3.50;99.90
19206;DHT22;59358;52.134;5.596;2022-11-20T11:27:51;3.60;99.90
19206;DHT22;59358;52.134;5.596;2022-11-20T11:30:19;3.60;99.90
19206;DHT22;59358;52.134;5.596;2022-11-20T11:32:47;3.70;99.90
19206;DHT22;59358;52.134;5.596;2022-11-20T11:35:24;3.70;99.90
19206;DHT22;59358;52.134;5.596;2022-11-20T11:37:54;3.70;99.90
19206;DHT22;59358;52.134;5.596;2022-11-20T11:41:12;3.70;99.90
19206;DHT22;59358;52.134;5.596;2022-11-20T11:44:20;3.60;99.90
19206;DHT22;59358;52.134;5.596;2022-11-20T11:47:23;3.60;99.90
19206;DHT22;59358;52.134;5.596;2022-11-20T11:50:01;3.60;99.90
19206;DHT22;59358;52.134;5.596;2022-11-20T11:52:31;3.60;99.90
19206;DHT22;59358;52.134;5.596;2022-11-20T11:55:04;3.60;99.90
19206;DHT22;59358;52.134;5.596;2022-11-20T11:57:41;3.40;99.90
19206;DHT22;59358;52.134;5.596;2022-11-20T12:00:12;3.40;99.90
19206;DHT22;59358;52.134;5.596;2022-11-20T12:02:49;3.40;99.90
19206;DHT22;59358;52.134;5.596;2022-11-20T12:05:23;3.20;99.90
19206;DHT22;59358;52.134;5.596;2022-11-20T12:07:54;3.20;99.90
19206;DHT22;59358;52.134;5.596;2022-11-20T12:10:34;3.20;99.90
19206;DHT22;59358;52.134;5.596;2022-11-20T12:13:30;3.20;99.90
19206;DHT22;59358;52.134;5.596;2022-11-20T12:15:59;3.20;99.90
19206;DHT22;59358;52.134;5.596;2022-11-20T12:18:27;3.10;99.90
19206;DHT22;59358;52.134;5.596;2022-11-20T12:21:03;3.10;99.90
19206;DHT22;59358;52.134;5.596;2022-11-20T12:23:41;3.20;99.90
19206;DHT22;59358;52.134;5.596;2022-11-20T12:26:19;3.20;99.90
19206;DHT22;59358;52.134;5.596;2022-11-20T12:29:01;3.30;99.90
19206;DHT22;59358;52.134;5.596;2022-11-20T12:31:40;3.30;99.90
19206;DHT22;59358;52.134;5.596;2022-11-20T12:34:17;3.30;99.90
19206;DHT22;59358;52.134;5.596;2022-11-20T12:36:51;3.20;99.90
19206;DHT22;59358;52.134;5.596;2022-11-20T12:39:37;3.30;99.90
19206;DHT22;59358;52.134;5.596;2022-11-20T12:42:31;3.30;99.90
19206;DHT22;59358;52.134;5.596;2022-11-20T12:45:37;3.50;99.90
19206;DHT22;59358;52.134;5.596;2022-11-20T12:54:35;3.50;99.90
19206;DHT22;59358;52.134;5.596;2022-11-20T12:57:15;3.30;99.90
19206;DHT22;59358;52.134;5.596;2022-11-20T12:59:59;3.30;99.90
19206;DHT22;59358;52.134;5.596;2022-11-20T13:02:33;3.40;99.90
19206;DHT22;59358;52.134;5.596;2022-11-20T13:05:17;3.40;99.90
19206;DHT22;59358;52.134;5.596;2022-11-20T13:07:45;3.40;99.90
19206;DHT22;59358;52.134;5.596;2022-11-20T13:10:18;3.30;99.90
19206;DHT22;59358;52.134;5.596;2022-11-20T13:12:50;3.10;99.90
19206;DHT22;59358;52.134;5.596;2022-11-20T13:15:33;3.10;99.90
19206;DHT22;59358;52.134;5.596;2022-11-20T13:18:06;3.10;99.90
19206;DHT22;59358;52.134;5.596;2022-11-20T13:20:35;3.00;99.90
19206;DHT22;59358;52.134;5.596;2022-11-20T13:23:02;3.00;99.90
19206;DHT22;59358;52.134;5.596;2022-11-20T13:25:31;3.00;99.90
19206;DHT22;59358;52.134;5.596;2022-11-20T13:28:01;3.00;99.90
19206;DHT22;59358;52.134;5.596;2022-11-20T13:30:30;3.00;99.90
19206;DHT22;59358;52.134;5.596;2022-11-20T13:33:04;3.00;99.90
19206;DHT22;59358;52.134;5.596;2022-11-20T13:35:34;2.90;99.90
19206;DHT22;59358;52.134;5.596;2022-11-20T13:38:06;2.90;99.90
19206;DHT22;59358;52.134;5.596;2022-11-20T13:40:36;2.90;99.90
19206;DHT22;59358;52.134;5.596;2022-11-20T13:43:22;2.80;99.90
19206;DHT22;59358;52.134;5.596;2022-11-20T13:45:58;2.90;99.90
19206;DHT22;59358;52.134;5.596;2022-11-20T13:48:29;2.90;99.90
19206;DHT22;59358;52.134;5.596;2022-11-20T13:51:23;2.90;99.90
19206;DHT22;59358;52.134;5.596;2022-11-20T13:54:03;2.90;99.90
19206;DHT22;59358;52.134;5.596;2022-11-20T13:56:40;3.00;99.90
19206;DHT22;59358;52.134;5.596;2022-11-20T13:59:19;3.00;99.90
19206;DHT22;59358;52.134;5.596;2022-11-20T14:01:50;3.00;99.90
19206;DHT22;59358;52.134;5.596;2022-11-20T14:04:25;3.10;99.90
19206;DHT22;59358;52.134;5.596;2022-11-20T14:06:53;3.10;99.90
19206;DHT22;59358;52.134;5.596;2022-11-20T14:09:27;3.10;99.90
19206;DHT22;59358;52.134;5.596;2022-11-20T14:11:55;3.10;99.90
19206;DHT22;59358;52.134;5.596;2022-11-20T14:14:24;3.10;99.90
19206;DHT22;59358;52.134;5.596;2022-11-20T14:16:53;3.10;99.90
19206;DHT22;59358;52.134;5.596;2022-11-20T14:19:26;3.10;99.90
19206;DHT22;59358;52.134;5.596;2022-11-20T14:22:06;3.20;99.90
19206;DHT22;59358;52.134;5.596;2022-11-20T14:24:33;3.20;99.90
19206;DHT22;59358;52.134;5.596;2022-11-20T14:27:00;3.20;99.90
19206;DHT22;59358;52.134;5.596;2022-11-20T14:29:33;3.10;99.90
19206;DHT22;59358;52.134;5.596;2022-11-20T14:32:01;3.10;99.90
19206;DHT22;59358;52.134;5.596;2022-11-20T14:34:30;3.20;99.90
19206;DHT22;59358;52.134;5.596;2022-11-20T14:37:00;3.10;99.90
19206;DHT22;59358;52.134;5.596;2022-11-20T14:39:31;3.10;99.90
19206;DHT22;59358;52.134;5.596;2022-11-20T14:41:59;3.00;99.90
19206;DHT22;59358;52.134;5.596;2022-11-20T14:44:29;3.00;99.90
19206;DHT22;59358;52.134;5.596;2022-11-20T14:46:59;2.90;99.90
19206;DHT22;59358;52.134;5.596;2022-11-20T14:49:26;2.90;99.90
19206;DHT22;59358;52.134;5.596;2022-11-20T14:52:00;2.90;99.90
19206;DHT22;59358;52.134;5.596;2022-11-20T14:54:27;2.90;99.90
19206;DHT22;59358;52.134;5.596;2022-11-20T14:56:57;2.90;99.90
19206;DHT22;59358;52.134;5.596;2022-11-20T14:59:25;2.90;99.90
19206;DHT22;59358;52.134;5.596;2022-11-20T15:01:58;2.90;99.90
19206;DHT22;59358;52.134;5.596;2022-11-20T15:04:25;2.90;99.90
19206;DHT22;59358;52.134;5.596;2022-11-20T15:06:53;2.90;99.90
19206;DHT22;59358;52.134;5.596;2022-11-20T15:09:21;2.90;99.90
19206;DHT22;59358;52.134;5.596;2022-11-20T15:11:54;2.90;99.90
19206;DHT22;59358;52.134;5.596;2022-11-20T15:14:22;2.80;99.90
19206;DHT22;59358;52.134;5.596;2022-11-20T15:16:50;2.80;99.90
19206;DHT22;59358;52.134;5.596;2022-11-20T15:19:19;2.80;99.90
19206;DHT22;59358;52.134;5.596;2022-11-20T15:21:48;2.80;99.90
19206;DHT22;59358;52.134;5.596;2022-11-20T15:24:15;2.90;99.90
19206;DHT22;59358;52.134;5.596;2022-11-20T15:26:42;2.80;99.90
19206;DHT22;59358;52.134;5.596;2022-11-20T15:29:11;2.80;99.90
19206;DHT22;59358;52.134;5.596;2022-11-20T15:31:38;2.90;99.90
19206;DHT22;59358;52.134;5.596;2022-11-20T15:34:10;2.90;99.90
19206;DHT22;59358;52.134;5.596;2022-11-20T15:36:38;2.90;99.90
19206;DHT22;59358;52.134;5.596;2022-11-20T15:39:05;2.90;99.90
19206;DHT22;59358;52.134;5.596;2022-11-20T15:41:33;2.80;99.90
19206;DHT22;59358;52.134;5.596;2022-11-20T15:44:00;2.80;99.90
19206;DHT22;59358;52.134;5.596;2022-11-20T15:46:29;2.80;99.90
19206;DHT22;59358;52.134;5.596;2022-11-20T15:48:59;2.80;99.90
19206;DHT22;59358;52.134;5.596;2022-11-20T15:51:27;2.80;99.90
19206;DHT22;59358;52.134;5.596;2022-11-20T15:53:57;2.80;99.90
19206;DHT22;59358;52.134;5.596;2022-11-20T15:56:24;2.80;99.90
19206;DHT22;59358;52.134;5.596;2022-11-20T15:58:51;2.80;99.90
19206;DHT22;59358;52.134;5.596;2022-11-20T16:01:20;2.80;99.90
19206;DHT22;59358;52.134;5.596;2022-11-20T16:03:47;2.80;99.90